Terminal Aerodrome Forecast
Issued by NWS Sterling, VA

Current Version | Previous Version | Graphics & Text | Print | Product List | Glossary On
Versions: 1 2 3 4 5 6 7 8 9 10 11 12 13 14 15 16 17 18 19
000
FTUS41 KLWX 181700
TAFMRB
TAF
KMRB 181735Z 1818/1918 30012G22KT P6SM BKN045 BKN070
     FM190000 30011G18KT P6SM BKN050
     FM190900 31009KT P6SM SCT035
     FM191500 31014G23KT P6SM SCT050=

USA.gov is the U.S. government's official web portal to all federal, state and local government web resources and services.